sensor_id;sensor_type;location;lat;lon;timestamp;P1;durP1;ratioP1;P2;durP2;ratioP2
67272;SDS011;54190;49.770;9.250;2022-11-15T00:01:48;10.13;;;5.60;;
67272;SDS011;54190;49.770;9.250;2022-11-15T00:04:33;8.70;;;5.53;;
67272;SDS011;54190;49.770;9.250;2022-11-15T00:07:17;11.03;;;6.23;;
67272;SDS011;54190;49.770;9.250;2022-11-15T00:10:01;7.80;;;5.03;;
67272;SDS011;54190;49.770;9.250;2022-11-15T00:12:46;7.63;;;5.20;;
67272;SDS011;54190;49.770;9.250;2022-11-15T00:15:30;11.00;;;5.50;;
67272;SDS011;54190;49.770;9.250;2022-11-15T00:18:15;8.20;;;5.30;;
67272;SDS011;54190;49.770;9.250;2022-11-15T00:21:03;7.07;;;5.03;;
67272;SDS011;54190;49.770;9.250;2022-11-15T00:23:49;9.57;;;5.60;;
67272;SDS011;54190;49.770;9.250;2022-11-15T00:26:34;7.17;;;5.40;;
67272;SDS011;54190;49.770;9.250;2022-11-15T00:29:18;12.63;;;6.63;;
67272;SDS011;54190;49.770;9.250;2022-11-15T00:32:02;10.53;;;6.70;;
67272;SDS011;54190;49.770;9.250;2022-11-15T00:34:46;11.70;;;6.80;;
67272;SDS011;54190;49.770;9.250;2022-11-15T00:37:30;10.23;;;6.43;;
67272;SDS011;54190;49.770;9.250;2022-11-15T00:40:14;8.43;;;5.20;;
67272;SDS011;54190;49.770;9.250;2022-11-15T00:42:58;8.60;;;5.37;;
67272;SDS011;54190;49.770;9.250;2022-11-15T00:45:42;7.80;;;5.53;;
67272;SDS011;54190;49.770;9.250;2022-11-15T00:48:26;8.20;;;5.57;;
67272;SDS011;54190;49.770;9.250;2022-11-15T00:51:10;10.33;;;6.50;;
67272;SDS011;54190;49.770;9.250;2022-11-15T00:53:54;7.70;;;5.20;;
67272;SDS011;54190;49.770;9.250;2022-11-15T00:56:38;11.70;;;6.50;;
67272;SDS011;54190;49.770;9.250;2022-11-15T00:59:22;9.17;;;6.07;;
67272;SDS011;54190;49.770;9.250;2022-11-15T01:02:06;9.53;;;6.37;;
67272;SDS011;54190;49.770;9.250;2022-11-15T01:04:51;7.47;;;5.50;;
67272;SDS011;54190;49.770;9.250;2022-11-15T01:07:35;7.73;;;5.50;;
67272;SDS011;54190;49.770;9.250;2022-11-15T01:10:20;11.13;;;5.40;;
67272;SDS011;54190;49.770;9.250;2022-11-15T01:13:04;8.10;;;5.80;;
67272;SDS011;54190;49.770;9.250;2022-11-15T01:15:49;9.17;;;6.10;;
67272;SDS011;54190;49.770;9.250;2022-11-15T01:18:33;7.70;;;5.90;;
67272;SDS011;54190;49.770;9.250;2022-11-15T01:21:18;7.80;;;6.07;;
67272;SDS011;54190;49.770;9.250;2022-11-15T01:24:02;6.47;;;4.93;;
67272;SDS011;54190;49.770;9.250;2022-11-15T01:26:47;8.83;;;5.97;;
67272;SDS011;54190;49.770;9.250;2022-11-15T01:29:32;9.67;;;5.90;;
67272;SDS011;54190;49.770;9.250;2022-11-15T01:32:16;9.00;;;6.40;;
67272;SDS011;54190;49.770;9.250;2022-11-15T01:35:00;8.50;;;6.00;;
67272;SDS011;54190;49.770;9.250;2022-11-15T01:37:44;7.13;;;5.33;;
67272;SDS011;54190;49.770;9.250;2022-11-15T01:40:29;7.90;;;5.93;;
67272;SDS011;54190;49.770;9.250;2022-11-15T01:43:26;7.40;;;5.63;;
67272;SDS011;54190;49.770;9.250;2022-11-15T01:49:16;6.93;;;5.27;;
67272;SDS011;54190;49.770;9.250;2022-11-15T01:52:04;7.87;;;5.30;;
67272;SDS011;54190;49.770;9.250;2022-11-15T01:54:53;6.67;;;5.10;;
67272;SDS011;54190;49.770;9.250;2022-11-15T01:57:42;9.73;;;5.63;;
67272;SDS011;54190;49.770;9.250;2022-11-15T02:00:30;7.13;;;4.73;;
67272;SDS011;54190;49.770;9.250;2022-11-15T02:03:15;10.37;;;5.60;;
67272;SDS011;54190;49.770;9.250;2022-11-15T02:05:59;7.30;;;5.13;;
67272;SDS011;54190;49.770;9.250;2022-11-15T02:08:45;7.67;;;5.17;;
67272;SDS011;54190;49.770;9.250;2022-11-15T02:11:29;7.00;;;5.37;;
67272;SDS011;54190;49.770;9.250;2022-11-15T02:14:14;6.10;;;5.10;;
67272;SDS011;54190;49.770;9.250;2022-11-15T02:42:26;10.80;;;5.13;;
67272;SDS011;54190;49.770;9.250;2022-11-15T02:45:37;9.50;;;6.10;;
67272;SDS011;54190;49.770;9.250;2022-11-15T02:48:28;10.40;;;7.07;;
67272;SDS011;54190;49.770;9.250;2022-11-15T02:51:13;9.57;;;6.73;;
67272;SDS011;54190;49.770;9.250;2022-11-15T02:53:59;9.53;;;6.70;;
67272;SDS011;54190;49.770;9.250;2022-11-15T02:56:43;9.53;;;6.53;;
67272;SDS011;54190;49.770;9.250;2022-11-15T02:59:37;12.40;;;9.03;;
67272;SDS011;54190;49.770;9.250;2022-11-15T03:08:49;10.50;;;7.60;;
67272;SDS011;54190;49.770;9.250;2022-11-15T03:11:49;10.20;;;7.33;;
67272;SDS011;54190;49.770;9.250;2022-11-15T03:14:59;12.90;;;8.40;;
67272;SDS011;54190;49.770;9.250;2022-11-15T03:17:52;10.20;;;6.80;;
67272;SDS011;54190;49.770;9.250;2022-11-15T03:20:43;10.37;;;7.10;;
67272;SDS011;54190;49.770;9.250;2022-11-15T03:23:28;10.13;;;6.60;;
67272;SDS011;54190;49.770;9.250;2022-11-15T03:26:14;10.63;;;7.27;;
67272;SDS011;54190;49.770;9.250;2022-11-15T03:29:13;12.00;;;7.10;;
67272;SDS011;54190;49.770;9.250;2022-11-15T03:32:09;11.03;;;6.47;;
67272;SDS011;54190;49.770;9.250;2022-11-15T03:35:01;8.40;;;5.67;;
67272;SDS011;54190;49.770;9.250;2022-11-15T03:37:57;8.97;;;6.37;;
67272;SDS011;54190;49.770;9.250;2022-11-15T03:40:53;8.97;;;6.40;;
67272;SDS011;54190;49.770;9.250;2022-11-15T03:43:44;15.00;;;8.13;;
67272;SDS011;54190;49.770;9.250;2022-11-15T03:46:38;11.67;;;7.40;;
67272;SDS011;54190;49.770;9.250;2022-11-15T03:49:29;11.37;;;7.43;;
67272;SDS011;54190;49.770;9.250;2022-11-15T03:52:18;8.80;;;7.00;;
67272;SDS011;54190;49.770;9.250;2022-11-15T03:55:03;10.87;;;6.43;;
67272;SDS011;54190;49.770;9.250;2022-11-15T03:57:52;7.77;;;5.70;;
67272;SDS011;54190;49.770;9.250;2022-11-15T04:00:39;12.60;;;7.00;;
67272;SDS011;54190;49.770;9.250;2022-11-15T04:03:23;13.90;;;6.80;;
67272;SDS011;54190;49.770;9.250;2022-11-15T04:06:07;8.40;;;6.40;;
67272;SDS011;54190;49.770;9.250;2022-11-15T04:08:51;11.80;;;6.87;;
67272;SDS011;54190;49.770;9.250;2022-11-15T04:11:36;9.33;;;7.13;;
67272;SDS011;54190;49.770;9.250;2022-11-15T04:14:20;12.00;;;7.93;;
67272;SDS011;54190;49.770;9.250;2022-11-15T04:17:04;13.20;;;8.90;;
67272;SDS011;54190;49.770;9.250;2022-11-15T04:19:49;9.63;;;7.93;;
67272;SDS011;54190;49.770;9.250;2022-11-15T04:22:52;12.33;;;7.87;;
67272;SDS011;54190;49.770;9.250;2022-11-15T04:25:57;13.10;;;8.23;;
67272;SDS011;54190;49.770;9.250;2022-11-15T04:28:47;13.33;;;7.90;;
67272;SDS011;54190;49.770;9.250;2022-11-15T04:31:51;12.70;;;9.20;;
67272;SDS011;54190;49.770;9.250;2022-11-15T04:34:35;12.53;;;8.57;;
67272;SDS011;54190;49.770;9.250;2022-11-15T04:37:19;13.80;;;8.80;;
67272;SDS011;54190;49.770;9.250;2022-11-15T04:40:03;11.33;;;8.50;;
67272;SDS011;54190;49.770;9.250;2022-11-15T04:42:47;14.17;;;8.50;;
67272;SDS011;54190;49.770;9.250;2022-11-15T04:45:32;13.83;;;8.50;;
67272;SDS011;54190;49.770;9.250;2022-11-15T04:48:16;14.30;;;8.40;;
67272;SDS011;54190;49.770;9.250;2022-11-15T04:51:00;11.70;;;8.50;;
67272;SDS011;54190;49.770;9.250;2022-11-15T04:53:44;11.50;;;7.67;;
67272;SDS011;54190;49.770;9.250;2022-11-15T04:56:29;13.07;;;8.37;;
67272;SDS011;54190;49.770;9.250;2022-11-15T04:59:13;10.00;;;8.03;;
67272;SDS011;54190;49.770;9.250;2022-11-15T05:01:58;13.70;;;7.70;;
67272;SDS011;54190;49.770;9.250;2022-11-15T05:04:42;13.80;;;7.97;;
67272;SDS011;54190;49.770;9.250;2022-11-15T05:07:26;11.03;;;8.00;;
67272;SDS011;54190;49.770;9.250;2022-11-15T05:10:10;10.37;;;8.07;;
67272;SDS011;54190;49.770;9.250;2022-11-15T05:12:55;13.97;;;9.17;;
67272;SDS011;54190;49.770;9.250;2022-11-15T05:15:39;12.80;;;7.40;;
67272;SDS011;54190;49.770;9.250;2022-11-15T05:18:23;10.20;;;7.30;;
67272;SDS011;54190;49.770;9.250;2022-11-15T05:21:08;13.23;;;8.10;;
67272;SDS011;54190;49.770;9.250;2022-11-15T05:23:54;11.60;;;7.57;;
67272;SDS011;54190;49.770;9.250;2022-11-15T05:26:38;10.43;;;7.33;;
67272;SDS011;54190;49.770;9.250;2022-11-15T05:29:22;13.07;;;8.03;;
67272;SDS011;54190;49.770;9.250;2022-11-15T05:32:06;9.13;;;7.30;;
67272;SDS011;54190;49.770;9.250;2022-11-15T05:34:52;12.93;;;8.27;;
67272;SDS011;54190;49.770;9.250;2022-11-15T05:37:37;15.53;;;9.90;;
67272;SDS011;54190;49.770;9.250;2022-11-15T05:40:21;13.10;;;8.10;;
67272;SDS011;54190;49.770;9.250;2022-11-15T05:43:05;10.23;;;7.57;;
67272;SDS011;54190;49.770;9.250;2022-11-15T05:45:50;10.10;;;7.57;;
67272;SDS011;54190;49.770;9.250;2022-11-15T05:48:34;14.40;;;8.30;;
67272;SDS011;54190;49.770;9.250;2022-11-15T05:51:21;11.60;;;7.40;;
67272;SDS011;54190;49.770;9.250;2022-11-15T05:54:07;9.77;;;7.70;;
67272;SDS011;54190;49.770;9.250;2022-11-15T05:56:51;10.93;;;8.20;;
67272;SDS011;54190;49.770;9.250;2022-11-15T05:59:37;15.30;;;8.97;;
67272;SDS011;54190;49.770;9.250;2022-11-15T06:02:21;11.10;;;8.30;;
67272;SDS011;54190;49.770;9.250;2022-11-15T06:05:06;13.10;;;8.90;;
67272;SDS011;54190;49.770;9.250;2022-11-15T06:07:50;11.67;;;8.40;;
67272;SDS011;54190;49.770;9.250;2022-11-15T06:10:34;14.87;;;8.30;;
67272;SDS011;54190;49.770;9.250;2022-11-15T06:13:18;14.07;;;8.77;;
67272;SDS011;54190;49.770;9.250;2022-11-15T06:16:02;12.10;;;8.63;;
67272;SDS011;54190;49.770;9.250;2022-11-15T06:18:46;11.70;;;8.40;;
67272;SDS011;54190;49.770;9.250;2022-11-15T06:21:30;14.57;;;9.17;;
67272;SDS011;54190;49.770;9.250;2022-11-15T06:24:14;32.27;;;16.93;;
67272;SDS011;54190;49.770;9.250;2022-11-15T06:26:58;33.30;;;17.70;;
67272;SDS011;54190;49.770;9.250;2022-11-15T06:29:42;49.97;;;21.93;;
67272;SDS011;54190;49.770;9.250;2022-11-15T06:32:28;72.60;;;36.00;;
67272;SDS011;54190;49.770;9.250;2022-11-15T06:35:13;57.10;;;29.57;;
67272;SDS011;54190;49.770;9.250;2022-11-15T06:38:02;23.70;;;13.90;;
67272;SDS011;54190;49.770;9.250;2022-11-15T06:40:48;15.33;;;10.53;;
67272;SDS011;54190;49.770;9.250;2022-11-15T06:43:32;16.00;;;9.60;;
67272;SDS011;54190;49.770;9.250;2022-11-15T06:46:17;13.27;;;9.13;;
67272;SDS011;54190;49.770;9.250;2022-11-15T06:49:01;28.93;;;24.83;;
67272;SDS011;54190;49.770;9.250;2022-11-15T06:51:45;25.17;;;19.20;;
67272;SDS011;54190;49.770;9.250;2022-11-15T06:54:29;24.47;;;18.67;;
67272;SDS011;54190;49.770;9.250;2022-11-15T06:57:13;19.63;;;12.43;;
67272;SDS011;54190;49.770;9.250;2022-11-15T06:59:57;13.57;;;10.40;;
67272;SDS011;54190;49.770;9.250;2022-11-15T07:02:41;12.47;;;9.00;;
67272;SDS011;54190;49.770;9.250;2022-11-15T07:05:25;12.87;;;8.67;;
67272;SDS011;54190;49.770;9.250;2022-11-15T07:08:09;11.93;;;9.10;;
67272;SDS011;54190;49.770;9.250;2022-11-15T07:10:53;14.37;;;9.10;;
67272;SDS011;54190;49.770;9.250;2022-11-15T07:13:38;15.50;;;10.17;;
67272;SDS011;54190;49.770;9.250;2022-11-15T07:16:22;14.50;;;9.30;;
67272;SDS011;54190;49.770;9.250;2022-11-15T07:19:08;22.60;;;10.90;;
67272;SDS011;54190;49.770;9.250;2022-11-15T07:21:52;15.37;;;10.20;;
67272;SDS011;54190;49.770;9.250;2022-11-15T07:24:36;16.80;;;10.63;;
67272;SDS011;54190;49.770;9.250;2022-11-15T07:27:21;14.43;;;11.20;;
67272;SDS011;54190;49.770;9.250;2022-11-15T07:30:05;17.40;;;10.90;;
67272;SDS011;54190;49.770;9.250;2022-11-15T07:32:56;14.47;;;11.20;;
67272;SDS011;54190;49.770;9.250;2022-11-15T07:35:42;16.77;;;9.30;;
67272;SDS011;54190;49.770;9.250;2022-11-15T07:38:26;12.00;;;8.97;;
67272;SDS011;54190;49.770;9.250;2022-11-15T07:41:12;15.43;;;9.33;;
67272;SDS011;54190;49.770;9.250;2022-11-15T07:43:56;13.57;;;8.60;;
67272;SDS011;54190;49.770;9.250;2022-11-15T07:46:41;12.73;;;9.13;;
67272;SDS011;54190;49.770;9.250;2022-11-15T07:49:25;35.40;;;22.87;;
67272;SDS011;54190;49.770;9.250;2022-11-15T07:52:09;23.00;;;15.93;;
67272;SDS011;54190;49.770;9.250;2022-11-15T07:54:53;23.40;;;15.10;;
67272;SDS011;54190;49.770;9.250;2022-11-15T07:57:37;21.57;;;14.10;;
67272;SDS011;54190;49.770;9.250;2022-11-15T08:00:21;17.50;;;12.33;;
67272;SDS011;54190;49.770;9.250;2022-11-15T08:05:51;16.00;;;11.63;;
67272;SDS011;54190;49.770;9.250;2022-11-15T08:08:35;16.40;;;11.13;;
67272;SDS011;54190;49.770;9.250;2022-11-15T08:11:19;15.77;;;10.00;;
67272;SDS011;54190;49.770;9.250;2022-11-15T08:14:04;15.13;;;10.00;;
67272;SDS011;54190;49.770;9.250;2022-11-15T08:16:48;16.80;;;9.17;;
67272;SDS011;54190;49.770;9.250;2022-11-15T08:19:32;21.57;;;13.87;;
67272;SDS011;54190;49.770;9.250;2022-11-15T08:22:16;24.07;;;15.33;;
67272;SDS011;54190;49.770;9.250;2022-11-15T08:25:01;15.37;;;10.80;;
67272;SDS011;54190;49.770;9.250;2022-11-15T08:27:45;22.50;;;13.60;;
67272;SDS011;54190;49.770;9.250;2022-11-15T08:30:29;27.13;;;15.43;;
67272;SDS011;54190;49.770;9.250;2022-11-15T08:33:14;19.33;;;12.37;;
67272;SDS011;54190;49.770;9.250;2022-11-15T08:35:58;17.70;;;11.30;;
67272;SDS011;54190;49.770;9.250;2022-11-15T08:38:43;18.13;;;11.80;;
67272;SDS011;54190;49.770;9.250;2022-11-15T08:41:31;25.60;;;16.40;;
67272;SDS011;54190;49.770;9.250;2022-11-15T08:44:19;29.00;;;18.60;;
67272;SDS011;54190;49.770;9.250;2022-11-15T08:47:03;20.63;;;15.07;;
67272;SDS011;54190;49.770;9.250;2022-11-15T08:49:48;34.33;;;22.20;;
67272;SDS011;54190;49.770;9.250;2022-11-15T08:52:32;29.63;;;18.27;;
67272;SDS011;54190;49.770;9.250;2022-11-15T08:55:16;17.90;;;12.60;;
67272;SDS011;54190;49.770;9.250;2022-11-15T08:58:01;16.27;;;10.87;;
67272;SDS011;54190;49.770;9.250;2022-11-15T09:00:45;27.00;;;16.27;;
67272;SDS011;54190;49.770;9.250;2022-11-15T09:03:29;16.70;;;11.60;;
67272;SDS011;54190;49.770;9.250;2022-11-15T09:06:13;17.03;;;10.30;;
67272;SDS011;54190;49.770;9.250;2022-11-15T09:08:59;18.40;;;12.47;;
67272;SDS011;54190;49.770;9.250;2022-11-15T09:11:44;19.23;;;13.00;;
67272;SDS011;54190;49.770;9.250;2022-11-15T09:14:29;17.43;;;10.20;;
67272;SDS011;54190;49.770;9.250;2022-11-15T09:17:13;13.03;;;9.90;;
67272;SDS011;54190;49.770;9.250;2022-11-15T09:19:57;20.37;;;10.70;;
67272;SDS011;54190;49.770;9.250;2022-11-15T09:22:42;13.07;;;9.40;;
67272;SDS011;54190;49.770;9.250;2022-11-15T09:25:26;13.53;;;10.03;;
67272;SDS011;54190;49.770;9.250;2022-11-15T09:28:10;15.33;;;10.53;;
67272;SDS011;54190;49.770;9.250;2022-11-15T09:30:58;13.30;;;9.80;;
67272;SDS011;54190;49.770;9.250;2022-11-15T09:33:44;12.33;;;8.63;;
67272;SDS011;54190;49.770;9.250;2022-11-15T09:36:28;13.80;;;9.70;;
67272;SDS011;54190;49.770;9.250;2022-11-15T09:39:12;14.43;;;8.90;;
67272;SDS011;54190;49.770;9.250;2022-11-15T09:45:34;15.30;;;10.50;;
67272;SDS011;54190;49.770;9.250;2022-11-15T09:56:30;11.17;;;8.33;;
67272;SDS011;54190;49.770;9.250;2022-11-15T10:01:44;21.77;;;17.60;;
67272;SDS011;54190;49.770;9.250;2022-11-15T10:04:31;15.47;;;12.00;;
67272;SDS011;54190;49.770;9.250;2022-11-15T10:07:00;16.10;;;9.60;;
67272;SDS011;54190;49.770;9.250;2022-11-15T10:09:37;14.77;;;10.10;;
67272;SDS011;54190;49.770;9.250;2022-11-15T10:12:08;7.83;;;6.90;;
67272;SDS011;54190;49.770;9.250;2022-11-15T10:14:34;9.90;;;7.40;;
67272;SDS011;54190;49.770;9.250;2022-11-15T10:17:14;11.30;;;8.20;;
67272;SDS011;54190;49.770;9.250;2022-11-15T10:23:01;12.67;;;8.13;;
67272;SDS011;54190;49.770;9.250;2022-11-15T10:25:31;14.77;;;8.87;;
67272;SDS011;54190;49.770;9.250;2022-11-15T10:30:39;14.07;;;9.27;;
67272;SDS011;54190;49.770;9.250;2022-11-15T10:33:49;11.43;;;8.30;;
67272;SDS011;54190;49.770;9.250;2022-11-15T10:38:49;15.50;;;11.37;;
67272;SDS011;54190;49.770;9.250;2022-11-15T10:41:20;12.07;;;7.40;;
67272;SDS011;54190;49.770;9.250;2022-11-15T10:44:03;9.20;;;7.40;;
67272;SDS011;54190;49.770;9.250;2022-11-15T10:46:31;9.00;;;6.80;;
67272;SDS011;54190;49.770;9.250;2022-11-15T10:49:15;11.80;;;7.83;;
67272;SDS011;54190;49.770;9.250;2022-11-15T10:51:47;12.97;;;9.87;;
67272;SDS011;54190;49.770;9.250;2022-11-15T10:54:46;15.90;;;10.10;;
67272;SDS011;54190;49.770;9.250;2022-11-15T10:57:16;14.40;;;9.87;;
67272;SDS011;54190;49.770;9.250;2022-11-15T10:59:47;13.50;;;8.07;;
67272;SDS011;54190;49.770;9.250;2022-11-15T11:02:29;10.90;;;7.40;;
67272;SDS011;54190;49.770;9.250;2022-11-15T11:05:29;11.13;;;7.63;;
67272;SDS011;54190;49.770;9.250;2022-11-15T11:10:37;9.90;;;5.90;;
67272;SDS011;54190;49.770;9.250;2022-11-15T11:13:21;12.60;;;6.27;;
67272;SDS011;54190;49.770;9.250;2022-11-15T11:21:46;16.80;;;11.70;;
67272;SDS011;54190;49.770;9.250;2022-11-15T11:24:38;16.10;;;10.30;;
67272;SDS011;54190;49.770;9.250;2022-11-15T11:27:35;15.37;;;9.90;;
67272;SDS011;54190;49.770;9.250;2022-11-15T11:30:21;12.47;;;7.77;;
67272;SDS011;54190;49.770;9.250;2022-11-15T11:41:08;9.13;;;4.23;;
67272;SDS011;54190;49.770;9.250;2022-11-15T11:49:49;9.23;;;4.90;;
67272;SDS011;54190;49.770;9.250;2022-11-15T11:52:28;5.57;;;4.17;;
67272;SDS011;54190;49.770;9.250;2022-11-15T11:58:02;6.40;;;4.00;;
67272;SDS011;54190;49.770;9.250;2022-11-15T12:00:28;6.00;;;4.27;;
67272;SDS011;54190;49.770;9.250;2022-11-15T12:05:29;6.03;;;3.73;;
67272;SDS011;54190;49.770;9.250;2022-11-15T12:11:01;5.50;;;3.10;;
67272;SDS011;54190;49.770;9.250;2022-11-15T12:13:48;4.10;;;2.97;;
67272;SDS011;54190;49.770;9.250;2022-11-15T12:16:22;5.27;;;3.10;;
67272;SDS011;54190;49.770;9.250;2022-11-15T12:18:53;4.73;;;3.03;;
67272;SDS011;54190;49.770;9.250;2022-11-15T12:21:31;3.70;;;2.97;;
67272;SDS011;54190;49.770;9.250;2022-11-15T12:24:03;4.30;;;2.90;;
67272;SDS011;54190;49.770;9.250;2022-11-15T12:26:51;5.63;;;2.80;;
67272;SDS011;54190;49.770;9.250;2022-11-15T12:29:38;5.83;;;3.23;;
67272;SDS011;54190;49.770;9.250;2022-11-15T12:34:58;4.30;;;3.10;;
67272;SDS011;54190;49.770;9.250;2022-11-15T12:42:36;4.87;;;3.00;;
67272;SDS011;54190;49.770;9.250;2022-11-15T12:45:37;10.93;;;2.80;;
67272;SDS011;54190;49.770;9.250;2022-11-15T13:01:52;6.10;;;3.30;;
67272;SDS011;54190;49.770;9.250;2022-11-15T13:04:08;5.10;;;3.00;;
67272;SDS011;54190;49.770;9.250;2022-11-15T13:06:50;4.80;;;2.90;;
67272;SDS011;54190;49.770;9.250;2022-11-15T13:12:09;4.93;;;3.60;;
67272;SDS011;54190;49.770;9.250;2022-11-15T13:14:50;5.10;;;3.00;;
67272;SDS011;54190;49.770;9.250;2022-11-15T13:17:24;4.20;;;2.53;;
67272;SDS011;54190;49.770;9.250;2022-11-15T13:28:32;6.90;;;3.03;;
67272;SDS011;54190;49.770;9.250;2022-11-15T13:33:54;5.70;;;3.80;;
67272;SDS011;54190;49.770;9.250;2022-11-15T13:36:30;9.33;;;4.20;;
67272;SDS011;54190;49.770;9.250;2022-11-15T13:39:00;6.90;;;3.60;;
67272;SDS011;54190;49.770;9.250;2022-11-15T13:41:34;4.70;;;3.53;;
67272;SDS011;54190;49.770;9.250;2022-11-15T13:44:01;5.60;;;4.00;;
67272;SDS011;54190;49.770;9.250;2022-11-15T13:46:29;9.30;;;3.30;;
67272;SDS011;54190;49.770;9.250;2022-11-15T13:48:57;5.70;;;3.63;;
67272;SDS011;54190;49.770;9.250;2022-11-15T13:53:58;6.47;;;3.90;;
67272;SDS011;54190;49.770;9.250;2022-11-15T13:56:27;8.00;;;3.87;;
67272;SDS011;54190;49.770;9.250;2022-11-15T13:58:55;6.60;;;3.20;;
67272;SDS011;54190;49.770;9.250;2022-11-15T14:01:21;7.53;;;3.80;;
67272;SDS011;54190;49.770;9.250;2022-11-15T14:03:55;8.10;;;3.70;;
67272;SDS011;54190;49.770;9.250;2022-11-15T14:06:23;4.57;;;3.30;;
67272;SDS011;54190;49.770;9.250;2022-11-15T14:11:36;5.60;;;3.50;;
67272;SDS011;54190;49.770;9.250;2022-11-15T14:16:37;5.10;;;3.43;;
67272;SDS011;54190;49.770;9.250;2022-11-15T14:19:04;4.10;;;3.20;;
67272;SDS011;54190;49.770;9.250;2022-11-15T14:21:30;5.40;;;3.47;;
67272;SDS011;54190;49.770;9.250;2022-11-15T14:24:15;4.63;;;3.60;;
67272;SDS011;54190;49.770;9.250;2022-11-15T14:26:46;4.07;;;3.37;;
67272;SDS011;54190;49.770;9.250;2022-11-15T14:29:22;6.13;;;3.43;;
67272;SDS011;54190;49.770;9.250;2022-11-15T14:31:47;7.60;;;3.50;;
67272;SDS011;54190;49.770;9.250;2022-11-15T14:34:13;6.07;;;3.47;;
67272;SDS011;54190;49.770;9.250;2022-11-15T14:36:38;6.70;;;2.97;;
67272;SDS011;54190;49.770;9.250;2022-11-15T14:39:04;5.80;;;3.30;;
67272;SDS011;54190;49.770;9.250;2022-11-15T14:41:33;5.83;;;3.37;;
67272;SDS011;54190;49.770;9.250;2022-11-15T14:44:02;5.30;;;2.97;;
67272;SDS011;54190;49.770;9.250;2022-11-15T14:46:29;5.73;;;3.20;;
67272;SDS011;54190;49.770;9.250;2022-11-15T14:48:55;6.50;;;3.60;;
67272;SDS011;54190;49.770;9.250;2022-11-15T14:51:21;5.77;;;3.33;;
67272;SDS011;54190;49.770;9.250;2022-11-15T14:53:47;4.73;;;3.10;;
67272;SDS011;54190;49.770;9.250;2022-11-15T14:56:13;4.27;;;3.20;;
67272;SDS011;54190;49.770;9.250;2022-11-15T14:58:40;5.53;;;3.03;;
67272;SDS011;54190;49.770;9.250;2022-11-15T15:01:12;6.33;;;3.17;;
67272;SDS011;54190;49.770;9.250;2022-11-15T15:03:41;6.23;;;3.60;;
67272;SDS011;54190;49.770;9.250;2022-11-15T15:06:09;3.80;;;2.77;;
67272;SDS011;54190;49.770;9.250;2022-11-15T15:08:35;5.17;;;3.20;;
67272;SDS011;54190;49.770;9.250;2022-11-15T15:11:00;6.63;;;3.43;;
67272;SDS011;54190;49.770;9.250;2022-11-15T15:13:26;5.00;;;3.73;;
67272;SDS011;54190;49.770;9.250;2022-11-15T15:15:53;7.43;;;4.90;;
67272;SDS011;54190;49.770;9.250;2022-11-15T15:18:19;6.70;;;3.53;;
67272;SDS011;54190;49.770;9.250;2022-11-15T15:20:46;6.10;;;3.33;;
67272;SDS011;54190;49.770;9.250;2022-11-15T15:23:19;5.00;;;3.50;;
67272;SDS011;54190;49.770;9.250;2022-11-15T15:25:45;5.50;;;3.10;;
67272;SDS011;54190;49.770;9.250;2022-11-15T15:28:13;4.83;;;3.17;;
67272;SDS011;54190;49.770;9.250;2022-11-15T15:30:39;7.10;;;4.23;;
67272;SDS011;54190;49.770;9.250;2022-11-15T15:33:05;4.50;;;3.37;;
67272;SDS011;54190;49.770;9.250;2022-11-15T15:35:32;4.93;;;3.60;;
67272;SDS011;54190;49.770;9.250;2022-11-15T15:37:59;5.20;;;3.70;;
67272;SDS011;54190;49.770;9.250;2022-11-15T15:40:26;4.83;;;3.33;;
67272;SDS011;54190;49.770;9.250;2022-11-15T15:42:54;7.63;;;3.90;;
67272;SDS011;54190;49.770;9.250;2022-11-15T15:45:19;8.87;;;4.13;;
67272;SDS011;54190;49.770;9.250;2022-11-15T15:47:45;5.20;;;3.83;;
67272;SDS011;54190;49.770;9.250;2022-11-15T15:52:58;15.60;;;7.80;;
67272;SDS011;54190;49.770;9.250;2022-11-15T15:55:26;10.00;;;5.60;;
67272;SDS011;54190;49.770;9.250;2022-11-15T15:57:52;38.47;;;14.40;;
67272;SDS011;54190;49.770;9.250;2022-11-15T16:00:18;8.97;;;4.50;;
67272;SDS011;54190;49.770;9.250;2022-11-15T16:02:45;14.67;;;7.53;;
67272;SDS011;54190;49.770;9.250;2022-11-15T16:05:11;8.93;;;4.73;;
67272;SDS011;54190;49.770;9.250;2022-11-15T16:07:37;26.77;;;13.03;;
67272;SDS011;54190;49.770;9.250;2022-11-15T16:10:15;15.90;;;8.13;;
67272;SDS011;54190;49.770;9.250;2022-11-15T16:12:47;14.80;;;7.20;;
67272;SDS011;54190;49.770;9.250;2022-11-15T16:15:13;21.80;;;11.90;;
67272;SDS011;54190;49.770;9.250;2022-11-15T16:17:40;28.10;;;15.63;;
67272;SDS011;54190;49.770;9.250;2022-11-15T16:20:20;19.30;;;10.70;;
67272;SDS011;54190;49.770;9.250;2022-11-15T16:22:47;25.17;;;14.40;;
67272;SDS011;54190;49.770;9.250;2022-11-15T16:25:13;21.27;;;11.97;;
67272;SDS011;54190;49.770;9.250;2022-11-15T16:27:38;17.87;;;10.90;;
67272;SDS011;54190;49.770;9.250;2022-11-15T16:30:16;23.30;;;16.80;;
67272;SDS011;54190;49.770;9.250;2022-11-15T16:32:43;21.13;;;14.87;;
67272;SDS011;54190;49.770;9.250;2022-11-15T16:35:10;13.60;;;10.27;;
67272;SDS011;54190;49.770;9.250;2022-11-15T16:37:40;6.80;;;4.73;;
67272;SDS011;54190;49.770;9.250;2022-11-15T16:42:38;7.40;;;4.00;;
67272;SDS011;54190;49.770;9.250;2022-11-15T16:45:03;7.60;;;4.50;;
67272;SDS011;54190;49.770;9.250;2022-11-15T16:47:29;8.00;;;4.57;;
67272;SDS011;54190;49.770;9.250;2022-11-15T16:49:55;7.33;;;4.37;;
67272;SDS011;54190;49.770;9.250;2022-11-15T16:52:20;5.47;;;4.57;;
67272;SDS011;54190;49.770;9.250;2022-11-15T16:54:46;5.80;;;4.33;;
67272;SDS011;54190;49.770;9.250;2022-11-15T16:57:12;6.57;;;4.07;;
67272;SDS011;54190;49.770;9.250;2022-11-15T16:59:37;5.60;;;4.10;;
67272;SDS011;54190;49.770;9.250;2022-11-15T17:02:03;5.20;;;3.70;;
67272;SDS011;54190;49.770;9.250;2022-11-15T17:04:28;5.97;;;4.83;;
67272;SDS011;54190;49.770;9.250;2022-11-15T17:06:57;7.93;;;4.80;;
67272;SDS011;54190;49.770;9.250;2022-11-15T17:09:23;6.87;;;4.40;;
67272;SDS011;54190;49.770;9.250;2022-11-15T17:11:49;9.47;;;7.87;;
67272;SDS011;54190;49.770;9.250;2022-11-15T17:14:15;8.03;;;4.80;;
67272;SDS011;54190;49.770;9.250;2022-11-15T17:16:41;7.73;;;5.00;;
67272;SDS011;54190;49.770;9.250;2022-11-15T17:19:15;8.50;;;5.00;;
67272;SDS011;54190;49.770;9.250;2022-11-15T17:21:43;10.20;;;4.70;;
67272;SDS011;54190;49.770;9.250;2022-11-15T17:24:09;5.90;;;4.50;;
67272;SDS011;54190;49.770;9.250;2022-11-15T17:26:36;5.20;;;4.60;;
67272;SDS011;54190;49.770;9.250;2022-11-15T17:29:03;7.50;;;5.00;;
67272;SDS011;54190;49.770;9.250;2022-11-15T17:31:32;7.50;;;4.60;;
67272;SDS011;54190;49.770;9.250;2022-11-15T17:33:59;8.53;;;4.93;;
67272;SDS011;54190;49.770;9.250;2022-11-15T17:36:26;7.97;;;5.00;;
67272;SDS011;54190;49.770;9.250;2022-11-15T17:38:52;6.40;;;4.63;;
67272;SDS011;54190;49.770;9.250;2022-11-15T17:41:18;6.60;;;4.50;;
67272;SDS011;54190;49.770;9.250;2022-11-15T17:43:45;10.43;;;5.20;;
67272;SDS011;54190;49.770;9.250;2022-11-15T17:46:15;6.10;;;4.43;;
67272;SDS011;54190;49.770;9.250;2022-11-15T17:48:43;8.53;;;4.27;;
67272;SDS011;54190;49.770;9.250;2022-11-15T17:51:10;6.60;;;4.90;;
67272;SDS011;54190;49.770;9.250;2022-11-15T17:53:38;7.83;;;4.60;;
67272;SDS011;54190;49.770;9.250;2022-11-15T17:56:15;9.17;;;4.80;;
67272;SDS011;54190;49.770;9.250;2022-11-15T18:01:28;11.40;;;4.43;;
67272;SDS011;54190;49.770;9.250;2022-11-15T18:03:55;6.23;;;3.90;;
67272;SDS011;54190;49.770;9.250;2022-11-15T18:06:24;8.47;;;4.47;;
67272;SDS011;54190;49.770;9.250;2022-11-15T18:08:50;6.07;;;4.70;;
67272;SDS011;54190;49.770;9.250;2022-11-15T18:11:18;7.37;;;4.97;;
67272;SDS011;54190;49.770;9.250;2022-11-15T18:13:47;5.77;;;4.20;;